Time;durP1;ratioP1;P1;durP2;ratioP2;P2;SDS_P1;SDS_P2;PMS_P1;PMS_P2;Temp;Humidity;BMP_temperature;BMP_pressure;BME280_temperature;BME280_humidity;BME280_pressure;Samples;Min_cycle;Max_cycle;Signal;HPM_P1;HPM_P2
2021/08/25 00:00:19;;;;;;;18.30;16.60;;;14.00;99.90;;;;;;4896112;29;20238;-79
2021/08/25 00:02:48;;;;;;;18.33;16.67;;;13.90;99.90;;;;;;4909662;29;20254;-79
2021/08/25 00:05:15;;;;;;;18.43;16.73;;;13.80;99.90;;;;;;4909205;29;20202;-79
2021/08/25 00:07:42;;;;;;;18.03;16.43;;;13.80;99.90;;;;;;4910029;29;20223;-78
2021/08/25 00:10:09;;;;;;;19.53;16.67;;;13.80;99.90;;;;;;4908993;29;20235;-79
2021/08/25 00:12:36;;;;;;;19.03;17.43;;;13.70;99.90;;;;;;4910404;29;20698;-79
2021/08/25 00:15:04;;;;;;;19.67;17.87;;;13.60;99.90;;;;;;4908655;29;20580;-79
2021/08/25 00:17:31;;;;;;;19.10;17.50;;;13.60;99.90;;;;;;4910179;29;20194;-79
2021/08/25 00:19:59;;;;;;;18.80;17.00;;;13.60;99.90;;;;;;4909965;29;20583;-79
2021/08/25 00:22:26;;;;;;;18.00;16.50;;;13.50;99.90;;;;;;4909732;29;20210;-79
2021/08/25 00:24:53;;;;;;;18.27;16.70;;;13.50;99.90;;;;;;4909165;29;20209;-79
2021/08/25 00:27:19;;;;;;;19.87;17.93;;;13.50;99.90;;;;;;4910558;29;20225;-79
2021/08/25 00:29:46;;;;;;;18.73;17.10;;;13.50;99.90;;;;;;4910730;29;20217;-79
2021/08/25 00:32:13;;;;;;;18.23;16.60;;;13.50;99.90;;;;;;4905982;29;20210;-79
2021/08/25 00:34:40;;;;;;;20.33;18.20;;;13.40;99.90;;;;;;4910734;29;20198;-79
2021/08/25 00:37:08;;;;;;;19.13;17.43;;;13.40;99.90;;;;;;4907988;29;20206;-79
2021/08/25 00:39:35;;;;;;;18.80;17.13;;;13.30;99.90;;;;;;4910268;29;20737;-79
2021/08/25 00:42:02;;;;;;;19.83;18.03;;;13.30;99.90;;;;;;4907280;29;20223;-79
2021/08/25 00:44:29;;;;;;;18.60;16.90;;;13.30;99.90;;;;;;4910998;29;20214;-79
2021/08/25 00:46:56;;;;;;;19.20;17.53;;;13.20;99.90;;;;;;4908515;29;20273;-79
2021/08/25 00:49:23;;;;;;;18.40;16.83;;;13.20;99.90;;;;;;4906942;29;20229;-79
2021/08/25 00:51:50;;;;;;;19.73;17.83;;;13.20;99.90;;;;;;4905471;29;20215;-79
2021/08/25 00:54:19;;;;;;;19.10;17.43;;;13.20;99.90;;;;;;4925625;29;20209;-79
2021/08/25 00:56:49;;;;;;;19.37;17.67;;;13.10;99.90;;;;;;4912558;29;20211;-79
2021/08/25 00:59:18;;;;;;;20.23;18.53;;;13.10;99.90;;;;;;4903016;29;20256;-79
2021/08/25 01:02:04;;;;;;;19.67;18.07;;;13.00;99.90;;;;;;4909178;29;20905;-79
2021/08/25 01:04:37;;;;;;;20.10;18.30;;;13.10;99.90;;;;;;4922723;29;20205;-79
2021/08/25 01:07:04;;;;;;;21.17;19.37;;;13.00;99.90;;;;;;4912890;29;20234;-79
2021/08/25 01:09:32;;;;;;;20.33;18.33;;;13.00;99.90;;;;;;4912949;29;20703;-79
2021/08/25 01:12:00;;;;;;;20.27;18.63;;;13.00;99.90;;;;;;4914046;29;20201;-79
2021/08/25 01:14:28;;;;;;;21.57;19.77;;;13.10;99.90;;;;;;4913895;29;20275;-79
2021/08/25 01:16:57;;;;;;;20.73;18.87;;;13.00;99.90;;;;;;4911349;29;20630;-79
2021/08/25 01:19:27;;;;;;;20.93;19.13;;;13.00;99.90;;;;;;4920089;29;20221;-79
2021/08/25 01:21:54;;;;;;;20.33;18.53;;;13.00;99.90;;;;;;4912595;29;20209;-79
2021/08/25 01:24:22;;;;;;;19.43;17.73;;;13.00;99.90;;;;;;4920129;29;20195;-79
2021/08/25 01:26:53;;;;;;;19.70;18.00;;;12.90;99.90;;;;;;4916620;29;20222;-79
2021/08/25 01:29:25;;;;;;;19.87;18.13;;;12.90;99.90;;;;;;4915274;29;20250;-79
2021/08/25 01:31:53;;;;;;;18.70;17.20;;;12.90;99.90;;;;;;4920100;29;20232;-79
2021/08/25 01:34:20;;;;;;;20.13;18.23;;;12.80;99.90;;;;;;4912597;29;20211;-79
2021/08/25 01:36:50;;;;;;;20.93;18.73;;;12.80;99.90;;;;;;4910788;29;20208;-79
2021/08/25 01:39:17;;;;;;;20.10;18.40;;;12.70;99.90;;;;;;4904444;29;20229;-79
2021/08/25 01:41:43;;;;;;;19.93;18.17;;;12.70;99.90;;;;;;4914071;29;20230;-79
2021/08/25 01:44:11;;;;;;;20.27;18.57;;;12.70;99.90;;;;;;4914039;29;20265;-79
2021/08/25 01:46:40;;;;;;;20.30;18.50;;;12.70;99.90;;;;;;4914134;29;20277;-79
2021/08/25 01:49:08;;;;;;;22.43;20.37;;;12.70;99.90;;;;;;4916000;29;20239;-79
2021/08/25 01:51:37;;;;;;;19.93;18.13;;;12.70;99.90;;;;;;4911855;29;20322;-79
2021/08/25 01:54:06;;;;;;;15.77;13.63;;;12.60;99.90;;;;;;4916123;29;20201;-79
2021/08/25 01:56:32;;;;;;;16.27;14.40;;;12.60;99.90;;;;;;4909141;29;20723;-79
2021/08/25 01:59:01;;;;;;;15.90;14.20;;;12.60;99.90;;;;;;4910379;29;20233;-79
2021/08/25 02:01:28;;;;;;;15.60;13.97;;;12.60;99.90;;;;;;4909847;29;20248;-79
2021/08/25 02:03:58;;;;;;;14.87;13.00;;;12.60;99.90;;;;;;4908372;29;20197;-79
2021/08/25 02:06:25;;;;;;;15.30;13.07;;;12.50;99.90;;;;;;4901730;29;20204;-79
2021/08/25 02:08:52;;;;;;;14.83;13.17;;;12.50;99.90;;;;;;4910219;29;20240;-79
2021/08/25 02:11:19;;;;;;;14.33;12.57;;;12.40;99.90;;;;;;4905576;29;20200;-79
2021/08/25 02:13:46;;;;;;;13.70;12.30;;;12.40;99.90;;;;;;4906348;29;20619;-79
2021/08/25 02:16:13;;;;;;;14.50;12.87;;;12.40;99.90;;;;;;4908544;29;20256;-78
2021/08/25 02:18:40;;;;;;;13.87;12.47;;;12.40;99.90;;;;;;4909244;29;20197;-78
2021/08/25 02:21:08;;;;;;;13.87;12.37;;;12.30;99.90;;;;;;4910812;29;20248;-78
2021/08/25 02:23:35;;;;;;;15.97;14.27;;;12.30;99.90;;;;;;4908623;29;20205;-78
2021/08/25 02:26:02;;;;;;;14.73;13.23;;;12.30;99.90;;;;;;4910124;29;20256;-78
2021/08/25 02:28:28;;;;;;;15.87;13.90;;;12.30;99.90;;;;;;4906640;29;20209;-79
2021/08/25 02:30:55;;;;;;;16.80;13.30;;;12.30;99.90;;;;;;4901690;29;20237;-79
2021/08/25 02:33:22;;;;;;;14.83;13.30;;;12.30;99.90;;;;;;4900808;29;20265;-78
2021/08/25 02:35:49;;;;;;;15.63;14.00;;;12.20;99.90;;;;;;4908509;29;20193;-78
2021/08/25 02:38:17;;;;;;;17.00;15.20;;;12.20;99.90;;;;;;4907527;29;20197;-78
2021/08/25 02:40:44;;;;;;;16.50;14.57;;;12.20;99.90;;;;;;4901778;29;20221;-78
2021/08/25 02:43:11;;;;;;;19.83;17.83;;;12.20;99.90;;;;;;4899850;29;20197;-78
2021/08/25 02:45:38;;;;;;;20.07;18.27;;;12.20;99.90;;;;;;4910502;29;20292;-78
2021/08/25 02:48:05;;;;;;;22.60;20.70;;;12.10;99.90;;;;;;4909675;29;20710;-77
2021/08/25 02:50:32;;;;;;;22.17;20.10;;;12.00;99.90;;;;;;4898634;29;20232;-78
2021/08/25 02:52:59;;;;;;;22.57;20.37;;;12.00;99.90;;;;;;4908610;29;20196;-78
2021/08/25 02:55:27;;;;;;;21.60;19.77;;;12.00;99.90;;;;;;4909454;29;20203;-79
2021/08/25 02:57:54;;;;;;;20.83;19.03;;;11.90;99.90;;;;;;4904670;29;20261;-79
2021/08/25 03:00:21;;;;;;;20.90;19.07;;;11.90;99.90;;;;;;4908455;29;20299;-79
2021/08/25 03:02:48;;;;;;;21.47;19.67;;;11.90;99.90;;;;;;4906170;29;20196;-79
2021/08/25 03:05:15;;;;;;;20.47;18.67;;;11.80;99.90;;;;;;4907456;29;20205;-79
2021/08/25 03:07:42;;;;;;;19.73;18.13;;;11.80;99.90;;;;;;4903224;29;20216;-79
2021/08/25 03:10:09;;;;;;;19.17;17.57;;;11.80;99.90;;;;;;4901355;29;20276;-78
2021/08/25 03:12:38;;;;;;;20.60;18.90;;;11.80;99.90;;;;;;4903353;29;20245;-79
2021/08/25 03:15:06;;;;;;;19.60;17.93;;;11.70;99.90;;;;;;4910095;29;20280;-78
2021/08/25 03:17:33;;;;;;;18.80;17.20;;;11.70;99.90;;;;;;4909320;29;20673;-79
2021/08/25 03:20:00;;;;;;;19.00;17.40;;;11.70;99.90;;;;;;4906369;29;20232;-79
2021/08/25 03:22:28;;;;;;;19.37;17.73;;;11.70;99.90;;;;;;4905282;29;20205;-79
2021/08/25 03:24:55;;;;;;;19.37;17.73;;;11.70;99.90;;;;;;4906884;29;20299;-79
2021/08/25 03:27:22;;;;;;;19.00;17.50;;;11.60;99.90;;;;;;4903070;29;20263;-79
2021/08/25 03:29:50;;;;;;;19.67;17.97;;;11.70;99.90;;;;;;4903651;29;20276;-79
2021/08/25 03:32:17;;;;;;;18.50;16.97;;;11.70;99.90;;;;;;4914769;29;20253;-78
2021/08/25 03:34:44;;;;;;;18.13;16.63;;;11.60;99.90;;;;;;4909182;29;20200;-78
2021/08/25 03:37:11;;;;;;;18.43;16.93;;;11.60;99.90;;;;;;4908184;29;20201;-79
2021/08/25 03:39:38;;;;;;;18.87;17.33;;;11.60;99.90;;;;;;4907321;29;20272;-79
2021/08/25 03:42:06;;;;;;;19.30;17.70;;;11.60;99.90;;;;;;4909926;29;20207;-79
2021/08/25 03:44:33;;;;;;;18.57;17.03;;;11.50;99.90;;;;;;4903311;29;20677;-79
2021/08/25 03:47:02;;;;;;;19.07;17.47;;;11.50;99.90;;;;;;4903469;29;20213;-79
2021/08/25 03:49:29;;;;;;;19.53;17.80;;;11.50;99.90;;;;;;4906825;29;20216;-79
2021/08/25 03:51:56;;;;;;;21.50;19.37;;;11.60;99.90;;;;;;4908415;29;20200;-79
2021/08/25 03:54:22;;;;;;;21.20;19.20;;;11.50;99.90;;;;;;4915883;29;20204;-79
2021/08/25 03:56:49;;;;;;;19.63;18.03;;;11.50;99.90;;;;;;4910227;29;20732;-78
2021/08/25 03:59:16;;;;;;;19.40;17.80;;;11.40;99.90;;;;;;4930330;23;20216;-77
2021/08/25 04:01:43;;;;;;;21.40;19.60;;;11.40;99.90;;;;;;4925168;29;20195;-77
2021/08/25 04:04:11;;;;;;;20.83;19.10;;;11.50;99.90;;;;;;4923408;29;20262;-77
2021/08/25 04:06:38;;;;;;;21.10;19.30;;;11.40;99.90;;;;;;4925284;29;20638;-77
2021/08/25 04:09:06;;;;;;;20.87;19.00;;;11.40;99.90;;;;;;4920951;29;20523;-77
2021/08/25 04:11:33;;;;;;;21.73;19.73;;;11.40;99.90;;;;;;4916575;29;20248;-77
2021/08/25 04:14:00;;;;;;;21.10;19.20;;;11.40;99.90;;;;;;4923377;29;20259;-77
2021/08/25 04:16:27;;;;;;;19.33;17.53;;;11.40;99.90;;;;;;4938389;29;20208;-76
2021/08/25 04:18:56;;;;;;;20.57;18.80;;;11.40;99.90;;;;;;4918415;29;20250;-76
2021/08/25 04:21:24;;;;;;;20.50;18.80;;;11.40;99.90;;;;;;4915339;29;20203;-75
2021/08/25 04:23:51;;;;;;;22.03;20.10;;;11.40;99.90;;;;;;4913450;29;20252;-76
2021/08/25 04:26:17;;;;;;;21.47;19.63;;;11.30;99.90;;;;;;4919705;29;20272;-77
2021/08/25 04:28:44;;;;;;;14.00;12.20;;;11.30;99.90;;;;;;4919875;29;20249;-77
2021/08/25 04:31:11;;;;;;;12.57;11.27;;;11.30;99.90;;;;;;4924133;29;20211;-76
2021/08/25 04:33:38;;;;;;;13.93;11.77;;;11.20;99.90;;;;;;4902356;29;20205;-77
2021/08/25 04:36:05;;;;;;;15.83;13.27;;;11.20;99.90;;;;;;4927083;29;20207;-77
2021/08/25 04:38:33;;;;;;;15.53;13.67;;;11.30;99.90;;;;;;4903473;29;20195;-77
2021/08/25 04:41:00;;;;;;;15.97;13.57;;;11.30;99.90;;;;;;4911919;29;20298;-77
2021/08/25 04:43:28;;;;;;;15.80;14.10;;;11.30;99.90;;;;;;4914062;29;20208;-77
2021/08/25 04:45:55;;;;;;;14.50;12.30;;;11.30;99.90;;;;;;4911729;29;20271;-78
2021/08/25 04:48:22;;;;;;;12.60;11.30;;;11.30;99.90;;;;;;4919950;29;20263;-77
2021/08/25 04:50:49;;;;;;;14.33;12.20;;;11.30;99.90;;;;;;4919268;29;20249;-78
2021/08/25 04:53:17;;;;;;;13.03;11.63;;;11.40;99.90;;;;;;4930157;29;20634;-78
2021/08/25 04:55:46;;;;;;;13.47;11.73;;;11.40;99.90;;;;;;4922605;29;20205;-77
2021/08/25 04:58:12;;;;;;;13.67;12.27;;;11.40;99.90;;;;;;4914067;29;20196;-77
2021/08/25 05:00:39;;;;;;;16.20;14.43;;;11.50;99.90;;;;;;4909119;29;20231;-78
2021/08/25 05:03:06;;;;;;;13.27;11.87;;;11.50;99.90;;;;;;4904309;29;20212;-78
2021/08/25 05:05:34;;;;;;;13.00;11.70;;;11.60;99.90;;;;;;4903764;29;20204;-78
2021/08/25 05:08:00;;;;;;;13.90;12.47;;;11.60;99.90;;;;;;4900059;29;20652;-78
2021/08/25 05:10:27;;;;;;;12.97;11.67;;;11.60;99.90;;;;;;4914705;29;20673;-77
2021/08/25 05:12:55;;;;;;;15.97;13.97;;;11.60;99.90;;;;;;4906028;29;20200;-78
2021/08/25 05:15:22;;;;;;;14.17;12.67;;;11.70;99.90;;;;;;4899934;29;20212;-77
2021/08/25 05:17:50;;;;;;;13.57;12.17;;;11.70;99.90;;;;;;4916328;29;20260;-77
2021/08/25 05:20:16;;;;;;;16.80;14.90;;;11.70;99.90;;;;;;4914545;29;20270;-76
2021/08/25 05:22:43;;;;;;;15.83;14.13;;;11.80;99.90;;;;;;4926355;29;20252;-78
2021/08/25 05:25:10;;;;;;;15.93;14.23;;;11.90;99.90;;;;;;4915536;29;20200;-77
2021/08/25 05:27:37;;;;;;;16.07;14.47;;;11.90;99.90;;;;;;4920093;29;20200;-76
2021/08/25 05:30:06;;;;;;;15.43;13.53;;;12.00;99.90;;;;;;4919186;29;20220;-77
2021/08/25 05:32:33;;;;;;;16.23;14.53;;;12.10;99.90;;;;;;4930577;29;20195;-77
2021/08/25 05:35:00;;;;;;;16.87;15.17;;;12.20;99.90;;;;;;4924236;29;20294;-77
2021/08/25 05:37:26;;;;;;;15.63;13.93;;;12.30;99.90;;;;;;4908616;29;20654;-77
2021/08/25 05:39:53;;;;;;;16.60;14.87;;;12.30;99.90;;;;;;4924994;29;20227;-77
2021/08/25 05:42:20;;;;;;;16.73;15.10;;;12.40;99.90;;;;;;4909046;29;20205;-76
2021/08/25 05:44:47;;;;;;;17.63;15.93;;;12.50;99.90;;;;;;4926430;29;20204;-77
2021/08/25 05:47:15;;;;;;;17.90;16.30;;;12.60;99.90;;;;;;4918776;29;20204;-76
2021/08/25 05:49:41;;;;;;;16.10;14.60;;;12.70;99.90;;;;;;4924902;29;20248;-77
2021/08/25 05:52:08;;;;;;;18.30;16.70;;;12.80;99.90;;;;;;4921825;29;20216;-76
2021/08/25 05:54:35;;;;;;;16.87;15.37;;;12.90;99.90;;;;;;4926353;29;20202;-77
2021/08/25 05:57:02;;;;;;;15.23;13.80;;;13.00;99.90;;;;;;4925516;29;20208;-76
2021/08/25 05:59:29;;;;;;;17.47;15.93;;;13.20;99.90;;;;;;4916500;29;20648;-76
2021/08/25 06:01:55;;;;;;;17.43;15.83;;;13.30;99.90;;;;;;4926201;29;20650;-77
2021/08/25 06:04:23;;;;;;;19.17;17.47;;;13.40;99.90;;;;;;4918923;29;20269;-77
2021/08/25 06:06:50;;;;;;;19.43;17.83;;;13.50;99.90;;;;;;4927438;29;20210;-77
2021/08/25 06:09:17;;;;;;;11.97;10.73;;;13.50;99.90;;;;;;4921076;29;20234;-76
2021/08/25 06:11:44;;;;;;;13.37;10.80;;;13.60;99.90;;;;;;4927580;29;20680;-77
2021/08/25 06:14:10;;;;;;;12.53;11.23;;;13.70;99.90;;;;;;4922522;29;20215;-76
2021/08/25 06:16:38;;;;;;;13.07;11.23;;;13.80;99.90;;;;;;4914916;29;20259;-76
2021/08/25 06:19:05;;;;;;;13.47;12.07;;;13.80;99.90;;;;;;4927865;29;20679;-77
2021/08/25 06:21:33;;;;;;;11.90;10.70;;;13.90;99.90;;;;;;4909893;29;20747;-77
2021/08/25 06:24:00;;;;;;;11.63;10.43;;;14.00;99.90;;;;;;4929832;29;20257;-77
2021/08/25 06:26:27;;;;;;;12.37;11.07;;;14.10;99.90;;;;;;4912696;29;20240;-77
2021/08/25 06:28:54;;;;;;;15.17;13.77;;;14.20;99.90;;;;;;4929521;29;20287;-77
2021/08/25 06:31:21;;;;;;;19.97;18.37;;;14.30;99.90;;;;;;4920578;29;20227;-76
2021/08/25 06:33:47;;;;;;;19.90;18.30;;;14.40;99.90;;;;;;4923854;29;20629;-77
2021/08/25 06:36:14;;;;;;;13.17;11.33;;;14.50;99.90;;;;;;4922787;29;20199;-75
2021/08/25 06:38:43;;;;;;;15.53;14.27;;;14.50;99.90;;;;;;4926514;29;20259;-77
2021/08/25 06:41:09;;;;;;;11.37;10.27;;;14.60;99.90;;;;;;4921839;29;20225;-76
2021/08/25 06:43:36;;;;;;;11.13;9.90;;;14.70;99.90;;;;;;4920894;29;20235;-77
2021/08/25 06:46:03;;;;;;;17.73;15.90;;;14.70;99.90;;;;;;4922193;29;20201;-77
2021/08/25 06:48:30;;;;;;;10.57;9.13;;;14.60;99.90;;;;;;4922844;29;20266;-76
2021/08/25 06:50:56;;;;;;;11.20;9.77;;;14.70;99.90;;;;;;4922111;29;20229;-76
2021/08/25 06:53:23;;;;;;;10.97;9.87;;;14.70;99.90;;;;;;4921414;29;20645;-78
2021/08/25 06:55:51;;;;;;;12.90;11.70;;;14.80;99.90;;;;;;4915382;29;20905;-79
2021/08/25 06:58:18;;;;;;;11.13;9.93;;;14.80;99.90;;;;;;4911331;29;20258;-77
2021/08/25 07:00:45;;;;;;;10.83;9.50;;;14.80;99.90;;;;;;4910352;29;20227;-77
2021/08/25 07:03:12;;;;;;;11.93;10.70;;;14.90;99.90;;;;;;4913570;29;20631;-78
2021/08/25 07:05:38;;;;;;;11.53;10.33;;;14.80;99.90;;;;;;4923678;29;20199;-77
2021/08/25 07:08:05;;;;;;;11.57;9.40;;;14.90;99.90;;;;;;4919150;29;20209;-77
2021/08/25 07:10:32;;;;;;;11.93;10.17;;;15.00;99.90;;;;;;4918626;29;20217;-78
2021/08/25 07:13:02;;;;;;;11.17;9.10;;;15.10;99.90;;;;;;4906434;29;20286;-78
2021/08/25 07:15:29;;;;;;;10.13;9.03;;;15.30;99.90;;;;;;4912877;29;20223;-78
2021/08/25 07:17:55;;;;;;;9.57;8.67;;;15.50;99.90;;;;;;4923151;29;20254;-78
2021/08/25 07:20:22;;;;;;;11.73;10.37;;;15.70;99.90;;;;;;4918552;29;20223;-78
2021/08/25 07:22:49;;;;;;;12.33;10.67;;;15.60;99.90;;;;;;4910397;29;20560;-78
2021/08/25 07:25:16;;;;;;;16.97;15.53;;;15.90;99.90;;;;;;4918135;29;20266;-77
2021/08/25 07:27:43;;;;;;;10.07;8.60;;;16.30;99.90;;;;;;4916692;29;20849;-79
2021/08/25 07:30:12;;;;;;;11.67;10.53;;;16.90;99.90;;;;;;4914990;29;20232;-78
2021/08/25 07:32:40;;;;;;;11.67;10.57;;;17.30;99.90;;;;;;4912068;29;20656;-78
2021/08/25 07:35:08;;;;;;;17.17;15.67;;;17.50;99.90;;;;;;4910655;29;20230;-79
2021/08/25 07:37:35;;;;;;;11.87;10.77;;;18.00;99.90;;;;;;4906991;29;20309;-78
2021/08/25 07:40:01;;;;;;;16.40;15.00;;;18.40;99.90;;;;;;4905190;29;20254;-79
2021/08/25 07:42:28;;;;;;;15.20;14.00;;;18.40;99.90;;;;;;4909863;29;20590;-79
2021/08/25 07:44:55;;;;;;;17.20;15.70;;;18.90;99.90;;;;;;4911670;29;20259;-79
2021/08/25 07:47:23;;;;;;;9.37;8.33;;;19.40;99.90;;;;;;4906345;29;20693;-79
2021/08/25 07:49:50;;;;;;;10.90;10.00;;;19.30;99.90;;;;;;4900938;29;20228;-80
2021/08/25 07:52:17;;;;;;;16.00;14.70;;;19.30;99.90;;;;;;4909640;29;20747;-78
2021/08/25 07:54:44;;;;;;;16.63;15.20;;;19.60;99.90;;;;;;4927516;29;20208;-78
2021/08/25 07:57:11;;;;;;;7.87;6.90;;;19.90;99.90;;;;;;4917673;29;20608;-78
2021/08/25 07:59:38;;;;;;;8.73;7.23;;;20.20;99.90;;;;;;4919961;29;20233;-79
2021/08/25 08:02:05;;;;;;;15.70;14.47;;;20.30;99.90;;;;;;4916396;29;20622;-79
2021/08/25 08:04:33;;;;;;;15.00;13.90;;;20.50;99.90;;;;;;4908245;29;20718;-79
2021/08/25 08:07:00;;;;;;;7.90;6.83;;;20.50;99.90;;;;;;4921049;29;20642;-80
2021/08/25 08:09:27;;;;;;;9.70;6.70;;;20.70;99.90;;;;;;4921308;29;20256;-79
2021/08/25 08:11:53;;;;;;;9.67;7.07;;;20.80;99.90;;;;;;4914379;29;20221;-79
2021/08/25 08:14:20;;;;;;;8.67;7.77;;;20.70;99.90;;;;;;4922031;29;20205;-79
2021/08/25 08:16:55;;;;;;;12.47;11.37;;;20.90;99.90;;;;;;4917437;29;20667;-80
2021/08/25 08:19:23;;;;;;;8.73;7.93;;;21.40;99.90;;;;;;4912720;29;20219;-79
2021/08/25 08:21:51;;;;;;;6.83;6.13;;;21.70;99.90;;;;;;4919571;29;20187;-80
2021/08/25 08:24:18;;;;;;;11.53;10.63;;;21.80;99.90;;;;;;4921008;29;20639;-82
2021/08/25 08:26:46;;;;;;;7.57;5.90;;;21.90;99.90;;;;;;4920289;29;20265;-78
2021/08/25 08:29:13;;;;;;;6.53;5.50;;;22.20;99.90;;;;;;4901400;29;20589;-78
2021/08/25 08:31:40;;;;;;;6.73;5.80;;;22.20;99.90;;;;;;4900646;29;20646;-78
2021/08/25 08:34:07;;;;;;;8.80;8.10;;;22.50;99.90;;;;;;4922161;29;20208;-79
2021/08/25 08:36:34;;;;;;;11.20;10.20;;;22.70;99.90;;;;;;4903636;29;20212;-78
2021/08/25 08:39:03;;;;;;;9.70;8.90;;;22.70;99.90;;;;;;4908274;29;20589;-78
2021/08/25 08:41:30;;;;;;;6.10;4.73;;;22.70;99.90;;;;;;4908193;29;20411;-79
2021/08/25 08:43:57;;;;;;;5.53;4.80;;;22.70;99.90;;;;;;4906651;29;20244;-79
2021/08/25 08:46:25;;;;;;;5.47;4.70;;;22.70;99.90;;;;;;4915609;29;20256;-79
2021/08/25 08:48:53;;;;;;;11.27;10.37;;;22.80;99.90;;;;;;4915757;29;20661;-79
2021/08/25 08:51:22;;;;;;;8.40;7.70;;;22.50;99.90;;;;;;4936427;29;20290;-79
2021/08/25 08:53:50;;;;;;;7.33;4.63;;;22.50;99.90;;;;;;4918030;29;20201;-80
2021/08/25 08:56:18;;;;;;;6.47;5.40;;;22.30;99.90;;;;;;4914420;29;20270;-81
2021/08/25 08:58:46;;;;;;;5.00;4.47;;;22.50;99.90;;;;;;4922086;29;20728;-82
2021/08/25 09:01:13;;;;;;;7.03;6.43;;;22.80;99.90;;;;;;4921398;29;20259;-78
2021/08/25 09:03:41;;;;;;;6.00;5.40;;;23.10;99.90;;;;;;4911745;29;20223;-80
2021/08/25 09:06:09;;;;;;;5.53;4.00;;;23.10;99.90;;;;;;4916541;29;20730;-79
2021/08/25 09:08:39;;;;;;;7.67;5.13;;;23.50;99.90;;;;;;4924004;29;20668;-80
2021/08/25 09:11:08;;;;;;;12.73;11.90;;;22.90;99.90;;;;;;4926771;29;20238;-80
2021/08/25 09:13:39;;;;;;;6.20;4.97;;;23.30;99.90;;;;;;4925925;29;20588;-80
2021/08/25 09:16:07;;;;;;;12.50;11.60;;;23.50;99.90;;;;;;4922646;29;20302;-80
2021/08/25 09:18:34;;;;;;;5.87;4.97;;;23.70;99.90;;;;;;4926932;29;20613;-80
2021/08/25 09:21:01;;;;;;;10.87;10.00;;;23.80;99.90;;;;;;4921865;29;20314;-80
2021/08/25 09:23:30;;;;;;;7.97;7.27;;;23.30;99.90;;;;;;4919708;29;20207;-80
2021/08/25 09:25:59;;;;;;;10.87;10.07;;;22.90;99.90;;;;;;4924358;29;20204;-80
2021/08/25 09:28:30;;;;;;;11.67;10.67;;;22.90;99.90;;;;;;4922119;29;20195;-80
2021/08/25 09:31:01;;;;;;;9.10;8.30;;;23.10;99.90;;;;;;4924744;29;20222;-79
2021/08/25 09:33:30;;;;;;;6.97;6.07;;;23.00;99.90;;;;;;4907425;29;20250;-80
2021/08/25 09:35:59;;;;;;;11.80;11.00;;;23.20;99.90;;;;;;4924809;29;20207;-79
2021/08/25 09:38:27;;;;;;;11.67;10.87;;;23.00;99.90;;;;;;4907950;29;20201;-83
2021/08/25 09:40:56;;;;;;;11.03;10.23;;;22.80;99.90;;;;;;4925239;29;20235;-77
2021/08/25 09:43:40;;;;;;;11.50;10.60;;;22.60;99.90;;;;;;4929945;29;20676;-77
2021/08/25 09:46:15;;;;;;;10.93;10.13;;;22.60;99.90;;;;;;4923068;29;20197;-77
2021/08/25 09:48:43;;;;;;;11.30;10.40;;;22.20;99.90;;;;;;4927800;29;20575;-77
2021/08/25 09:51:11;;;;;;;11.70;10.60;;;21.90;99.90;;;;;;4924011;29;20221;-79
2021/08/25 09:53:38;;;;;;;11.70;10.80;;;21.60;99.90;;;;;;4918723;29;20227;-79
2021/08/25 09:56:23;;;;;;;11.63;10.73;;;21.60;99.90;;;;;;4917640;29;20216;-78
2021/08/25 09:58:50;;;;;;;11.23;10.30;;;21.50;99.90;;;;;;4913599;29;20724;-77
2021/08/25 10:01:19;;;;;;;11.20;10.20;;;21.90;99.90;;;;;;4952102;23;20232;-79
2021/08/25 10:03:46;;;;;;;11.50;10.60;;;22.20;99.90;;;;;;4920149;29;20196;-79
2021/08/25 10:06:15;;;;;;;11.10;10.20;;;22.10;99.90;;;;;;4914618;29;20200;-80
2021/08/25 10:08:42;;;;;;;10.97;10.03;;;21.90;99.90;;;;;;4905816;29;20201;-79
2021/08/25 10:11:09;;;;;;;11.20;10.40;;;21.40;99.90;;;;;;4912257;29;20256;-77
2021/08/25 10:13:36;;;;;;;11.20;10.40;;;21.60;99.90;;;;;;4901277;29;20616;-78
2021/08/25 10:16:04;;;;;;;10.87;10.07;;;21.60;99.90;;;;;;4897883;29;20208;-77
2021/08/25 10:18:38;;;;;;;11.17;10.37;;;21.60;99.90;;;;;;4895401;29;20205;-79
2021/08/25 10:21:25;;;;;;;10.90;10.10;;;21.60;99.90;;;;;;4899787;29;20259;-78
2021/08/25 10:24:05;;;;;;;11.23;10.33;;;21.90;99.90;;;;;;4895475;29;20284;-78
2021/08/25 10:26:33;;;;;;;10.93;10.03;;;21.70;99.90;;;;;;4898150;29;20201;-79
2021/08/25 10:29:06;;;;;;;10.47;9.60;;;21.50;99.90;;;;;;4899737;29;20209;-79
2021/08/25 10:32:13;;;;;;;10.53;9.73;;;21.70;99.90;;;;;;4895836;29;20615;-79
2021/08/25 10:34:43;;;;;;;11.50;10.47;;;21.80;99.90;;;;;;4896653;29;20283;-78
2021/08/25 10:37:29;;;;;;;10.87;9.97;;;21.80;99.90;;;;;;4897191;29;20201;-79
2021/08/25 10:40:04;;;;;;;10.03;9.23;;;21.70;99.90;;;;;;4898282;29;20224;-78
2021/08/25 10:42:46;;;;;;;10.87;10.03;;;22.00;99.90;;;;;;4897078;29;20616;-79
2021/08/25 10:45:13;;;;;;;11.23;10.43;;;22.30;99.90;;;;;;4892333;29;20587;-79
2021/08/25 10:47:59;;;;;;;10.50;9.73;;;22.30;99.90;;;;;;4898102;29;20662;-80
2021/08/25 10:50:51;;;;;;;10.43;9.63;;;22.10;99.90;;;;;;4894763;29;20231;-79
2021/08/25 10:53:40;;;;;;;10.70;9.90;;;22.30;99.90;;;;;;4892931;29;20612;-79
2021/08/25 10:56:10;;;;;;;10.50;9.60;;;22.20;99.90;;;;;;4897280;29;20261;-79
2021/08/25 10:58:47;;;;;;;11.17;10.27;;;21.90;99.90;;;;;;4900956;29;20267;-79
2021/08/25 11:01:28;;;;;;;10.50;9.60;;;21.90;99.90;;;;;;4899085;29;20675;-79
2021/08/25 11:03:56;;;;;;;10.17;9.37;;;22.00;99.90;;;;;;4899186;29;20554;-78
2021/08/25 11:06:42;;;;;;;9.90;9.00;;;22.00;99.90;;;;;;4899642;29;20202;-79
2021/08/25 11:09:23;;;;;;;10.30;9.30;;;21.80;99.90;;;;;;4909097;29;20208;-79
2021/08/25 11:11:53;;;;;;;10.50;9.60;;;21.70;99.90;;;;;;4904353;29;20212;-79
2021/08/25 11:14:23;;;;;;;10.30;9.50;;;21.60;99.90;;;;;;4902289;29;20197;-79
2021/08/25 11:16:51;;;;;;;10.40;9.50;;;21.40;99.90;;;;;;4901698;29;20653;-79
2021/08/25 11:19:30;;;;;;;10.53;9.63;;;21.20;99.90;;;;;;4898145;29;20201;-79
2021/08/25 11:22:00;;;;;;;10.40;9.40;;;21.30;99.90;;;;;;4897415;29;20286;-79
2021/08/25 11:24:38;;;;;;;10.70;9.87;;;21.40;99.90;;;;;;4900162;29;20563;-79
2021/08/25 11:27:18;;;;;;;10.57;9.77;;;21.20;99.90;;;;;;4901263;29;20235;-78
2021/08/25 11:29:45;;;;;;;10.37;9.57;;;21.00;99.90;;;;;;4899764;29;20705;-78
2021/08/25 11:32:14;;;;;;;10.70;9.90;;;21.10;99.90;;;;;;4903616;29;20211;-78
2021/08/25 11:34:43;;;;;;;10.50;9.70;;;21.20;99.90;;;;;;4900477;29;20672;-78
2021/08/25 11:37:11;;;;;;;11.53;10.60;;;21.10;99.90;;;;;;4900064;29;20302;-81
2021/08/25 11:39:38;;;;;;;10.90;10.00;;;21.10;99.90;;;;;;4902767;29;20206;-79
2021/08/25 11:42:05;;;;;;;10.43;9.60;;;21.10;99.90;;;;;;4899962;29;20633;-77
2021/08/25 11:44:39;;;;;;;10.70;9.80;;;21.10;99.90;;;;;;4899767;29;20244;-79
2021/08/25 11:47:11;;;;;;;11.70;10.70;;;21.10;99.90;;;;;;4902109;29;20287;-79
2021/08/25 11:49:39;;;;;;;10.70;9.80;;;21.00;99.90;;;;;;4898903;29;20211;-79
2021/08/25 11:52:08;;;;;;;10.83;10.00;;;20.90;99.90;;;;;;4904564;29;20215;-79
2021/08/25 11:54:36;;;;;;;10.47;9.57;;;20.80;99.90;;;;;;4900208;29;20203;-79
2021/08/25 11:57:04;;;;;;;11.10;10.20;;;20.90;99.90;;;;;;4904902;29;20210;-79
2021/08/25 11:59:31;;;;;;;11.17;10.07;;;20.90;99.90;;;;;;4902979;29;20347;-79
2021/08/25 12:02:06;;;;;;;10.57;9.67;;;20.90;99.90;;;;;;4902868;29;20272;-79
2021/08/25 12:04:33;;;;;;;10.87;9.87;;;21.00;99.90;;;;;;4896511;29;20259;-78
2021/08/25 12:06:59;;;;;;;10.97;9.87;;;21.00;99.90;;;;;;4904070;29;20201;-79
2021/08/25 12:09:30;;;;;;;10.53;9.73;;;20.80;99.90;;;;;;4901687;29;20205;-79
2021/08/25 12:11:59;;;;;;;10.20;9.40;;;20.80;99.90;;;;;;4901919;29;20201;-79
2021/08/25 12:14:26;;;;;;;10.53;9.63;;;20.80;99.90;;;;;;4896104;29;20677;-79
2021/08/25 12:17:05;;;;;;;10.03;9.23;;;20.80;99.90;;;;;;4900486;29;20816;-79
2021/08/25 12:19:34;;;;;;;11.13;10.33;;;21.00;99.90;;;;;;4897174;29;20204;-78
2021/08/25 12:22:19;;;;;;;10.13;9.23;;;21.10;99.90;;;;;;4902404;29;20307;-79
2021/08/25 12:24:46;;;;;;;5.37;4.20;;;21.00;99.90;;;;;;4899528;29;20208;-79
2021/08/25 12:27:15;;;;;;;4.93;4.33;;;21.00;99.90;;;;;;4896899;29;20212;-79
2021/08/25 12:29:44;;;;;;;11.20;10.40;;;21.10;99.90;;;;;;4898463;29;20622;-79
2021/08/25 12:32:12;;;;;;;9.47;4.70;;;21.20;99.90;;;;;;4898253;29;20204;-79
2021/08/25 12:34:55;;;;;;;6.20;5.00;;;21.20;99.90;;;;;;4900452;29;20260;-77
2021/08/25 12:37:22;;;;;;;5.40;4.37;;;21.10;99.90;;;;;;4896175;29;20256;-78